EUS85SM EIDW-EINN
Flight info
| Callsign | EUS85SM |
|---|---|
| Flight time | 0h 31m |
| Altitude | 24000 |
| Route | PELIG2J PELIG DCT DIGAN DIGAN2E |
| Aircraft | A320/M-SDE3FGHIRWY/LB1 |
Departure
| Time | 2026-05-05 17:07 |
|---|---|
| Airport | Dublin Airport (EIDW) |
Arrival
| Time | 2026-05-05 17:38 |
|---|---|
| Airport | Shannon Airport (EINN) |
| Time | Latitude | Longitude | Altitude | Speed | Heading |
|---|---|---|---|---|---|
| 2026-05-05 16:38 | 53.42322 | -6.24258 | 217 ft | 0 kts | 316° |
| 2026-05-05 16:56 | 53.42312 | -6.24242 | 211 ft | 4 kts | 316° |
| 2026-05-05 16:57 | 53.42293 | -6.24210 | 220 ft | 4 kts | 315° |
| 2026-05-05 16:57 | 53.42275 | -6.24177 | 211 ft | 4 kts | 300° |
| 2026-05-05 16:57 | 53.42267 | -6.24139 | 215 ft | 4 kts | 253° |
| 2026-05-05 16:57 | 53.42275 | -6.24121 | 212 ft | 1 kts | 196° |
| 2026-05-05 16:58 | 53.42278 | -6.24119 | 212 ft | 0 kts | 196° |
| 2026-05-05 17:00 | 53.42275 | -6.24121 | 211 ft | 4 kts | 196° |
| 2026-05-05 17:01 | 53.42237 | -6.24139 | 213 ft | 3 kts | 196° |
| 2026-05-05 17:01 | 53.42206 | -6.24178 | 211 ft | 12 kts | 221° |
| 2026-05-05 17:01 | 53.42159 | -6.24284 | 216 ft | 11 kts | 261° |
| 2026-05-05 17:01 | 53.42165 | -6.24428 | 220 ft | 17 kts | 276° |
| 2026-05-05 17:02 | 53.42176 | -6.24649 | 213 ft | 20 kts | 275° |
| 2026-05-05 17:02 | 53.42258 | -6.24785 | 216 ft | 19 kts | 336° |
| 2026-05-05 17:02 | 53.42384 | -6.24878 | 215 ft | 21 kts | 336° |
| 2026-05-05 17:02 | 53.42524 | -6.24979 | 211 ft | 23 kts | 336° |
| 2026-05-05 17:03 | 53.42671 | -6.25085 | 216 ft | 19 kts | 337° |
| 2026-05-05 17:03 | 53.42743 | -6.25205 | 215 ft | 16 kts | 333° |
| 2026-05-05 17:03 | 53.42850 | -6.25284 | 219 ft | 18 kts | 336° |
| 2026-05-05 17:03 | 53.42973 | -6.25372 | 218 ft | 20 kts | 337° |
| 2026-05-05 17:04 | 53.43106 | -6.25469 | 214 ft | 21 kts | 337° |
| 2026-05-05 17:04 | 53.43247 | -6.25570 | 211 ft | 23 kts | 336° |
| 2026-05-05 17:04 | 53.43382 | -6.25649 | 211 ft | 18 kts | 16° |
| 2026-05-05 17:04 | 53.43402 | -6.25457 | 211 ft | 19 kts | 95° |
| 2026-05-05 17:05 | 53.43388 | -6.25221 | 214 ft | 21 kts | 96° |
| 2026-05-05 17:05 | 53.43374 | -6.24960 | 215 ft | 24 kts | 95° |
| 2026-05-05 17:05 | 53.43360 | -6.24679 | 211 ft | 21 kts | 95° |
| 2026-05-05 17:05 | 53.43425 | -6.24557 | 212 ft | 17 kts | 7° |
| 2026-05-05 17:06 | 53.43527 | -6.24572 | 219 ft | 13 kts | 296° |
| 2026-05-05 17:06 | 53.43528 | -6.24635 | 218 ft | 0 kts | 274° |
| 2026-05-05 17:06 | 53.43530 | -6.24675 | 216 ft | 19 kts | 275° |
| 2026-05-05 17:06 | 53.43570 | -6.25404 | 210 ft | 102 kts | 275° |
| 2026-05-05 17:07 | 53.43654 | -6.26947 | 218 ft | 162 kts | 275° |
| 2026-05-05 17:07 | 53.43768 | -6.28937 | 700 ft | 173 kts | 281° |
| 2026-05-05 17:07 | 53.44307 | -6.30684 | 1475 ft | 172 kts | 315° |
| 2026-05-05 17:07 | 53.45087 | -6.32170 | 2289 ft | 171 kts | 312° |
| 2026-05-05 17:08 | 53.45862 | -6.33643 | 3126 ft | 165 kts | 313° |
| 2026-05-05 17:08 | 53.46582 | -6.35101 | 3933 ft | 161 kts | 310° |
| 2026-05-05 17:08 | 53.47304 | -6.36604 | 4447 ft | 176 kts | 311° |
| 2026-05-05 17:08 | 53.48134 | -6.38265 | 4921 ft | 191 kts | 310° |
| 2026-05-05 17:09 | 53.48932 | -6.40149 | 5411 ft | 209 kts | 307° |
| 2026-05-05 17:09 | 53.49852 | -6.42226 | 5867 ft | 233 kts | 308° |
| 2026-05-05 17:09 | 53.50893 | -6.44483 | 6439 ft | 254 kts | 308° |
| 2026-05-05 17:09 | 53.52002 | -6.46864 | 7280 ft | 262 kts | 308° |
| 2026-05-05 17:10 | 53.53126 | -6.49309 | 8206 ft | 268 kts | 304° |
| 2026-05-05 17:10 | 53.53819 | -6.52234 | 9069 ft | 277 kts | 278° |
| 2026-05-05 17:10 | 53.53646 | -6.55476 | 9964 ft | 286 kts | 252° |
| 2026-05-05 17:10 | 53.52610 | -6.58355 | 10769 ft | 296 kts | 228° |
| 2026-05-05 17:11 | 53.50814 | -6.60297 | 11116 ft | 323 kts | 198° |
| 2026-05-05 17:11 | 53.48537 | -6.60483 | 11748 ft | 337 kts | 168° |
| 2026-05-05 17:11 | 53.46329 | -6.59094 | 12552 ft | 343 kts | 156° |
| 2026-05-05 17:11 | 53.44186 | -6.57323 | 13393 ft | 347 kts | 153° |
| 2026-05-05 17:12 | 53.42113 | -6.55529 | 14158 ft | 351 kts | 158° |
| 2026-05-05 17:12 | 53.39753 | -6.54449 | 14866 ft | 353 kts | 176° |
| 2026-05-05 17:12 | 53.37309 | -6.54671 | 15594 ft | 353 kts | 195° |
| 2026-05-05 17:12 | 53.35239 | -6.56073 | 16263 ft | 351 kts | 214° |
| 2026-05-05 17:13 | 53.33414 | -6.58748 | 16981 ft | 350 kts | 234° |
| 2026-05-05 17:13 | 53.32229 | -6.62266 | 17716 ft | 349 kts | 250° |
| 2026-05-05 17:13 | 53.31333 | -6.66064 | 18454 ft | 352 kts | 250° |
| 2026-05-05 17:13 | 53.30436 | -6.69888 | 19079 ft | 355 kts | 250° |
| 2026-05-05 17:14 | 53.29528 | -6.73744 | 19724 ft | 358 kts | 250° |
| 2026-05-05 17:14 | 53.28612 | -6.77628 | 20373 ft | 361 kts | 250° |
| 2026-05-05 17:14 | 53.27684 | -6.81544 | 21025 ft | 364 kts | 250° |
| 2026-05-05 17:14 | 53.26746 | -6.85485 | 21676 ft | 366 kts | 250° |
| 2026-05-05 17:15 | 53.25797 | -6.89456 | 22345 ft | 369 kts | 250° |
| 2026-05-05 17:15 | 53.24842 | -6.93443 | 23001 ft | 372 kts | 250° |
| 2026-05-05 17:15 | 53.23878 | -6.97460 | 23623 ft | 375 kts | 250° |
| 2026-05-05 17:15 | 53.22903 | -7.01510 | 23964 ft | 377 kts | 250° |
| 2026-05-05 17:16 | 53.21926 | -7.05556 | 24046 ft | 371 kts | 250° |
| 2026-05-05 17:16 | 53.20985 | -7.09453 | 24065 ft | 355 kts | 250° |
| 2026-05-05 17:16 | 53.20069 | -7.13235 | 24068 ft | 349 kts | 250° |
| 2026-05-05 17:16 | 53.19162 | -7.16984 | 24071 ft | 348 kts | 250° |
| 2026-05-05 17:17 | 53.18261 | -7.20722 | 24070 ft | 348 kts | 250° |
| 2026-05-05 17:17 | 53.17356 | -7.24467 | 24070 ft | 348 kts | 250° |
| 2026-05-05 17:17 | 53.16448 | -7.28208 | 24070 ft | 348 kts | 250° |
| 2026-05-05 17:17 | 53.15537 | -7.31952 | 24071 ft | 348 kts | 250° |
| 2026-05-05 17:18 | 53.14625 | -7.35692 | 24071 ft | 348 kts | 249° |
| 2026-05-05 17:18 | 53.13711 | -7.39428 | 24071 ft | 348 kts | 249° |
| 2026-05-05 17:18 | 53.12797 | -7.43159 | 24071 ft | 348 kts | 249° |
| 2026-05-05 17:18 | 53.11880 | -7.46887 | 24070 ft | 348 kts | 249° |
| 2026-05-05 17:19 | 53.11271 | -7.49361 | 24068 ft | 348 kts | 249° |
| 2026-05-05 17:19 | 53.10057 | -7.54279 | 24067 ft | 348 kts | 249° |
| 2026-05-05 17:19 | 53.09436 | -7.56795 | 24066 ft | 348 kts | 249° |
| 2026-05-05 17:19 | 53.08516 | -7.60520 | 24064 ft | 348 kts | 249° |
| 2026-05-05 17:20 | 53.07297 | -7.65459 | 24066 ft | 348 kts | 249° |
| 2026-05-05 17:20 | 53.06675 | -7.67970 | 24066 ft | 348 kts | 249° |
| 2026-05-05 17:20 | 53.05752 | -7.71696 | 24065 ft | 349 kts | 249° |
| 2026-05-05 17:20 | 53.04826 | -7.75422 | 24068 ft | 349 kts | 249° |
| 2026-05-05 17:21 | 53.03901 | -7.79144 | 24065 ft | 349 kts | 249° |
| 2026-05-05 17:21 | 53.02975 | -7.82864 | 24066 ft | 349 kts | 249° |
| 2026-05-05 17:21 | 53.02043 | -7.86592 | 24065 ft | 349 kts | 249° |
| 2026-05-05 17:22 | 53.00214 | -7.93894 | 24071 ft | 349 kts | 249° |
| 2026-05-05 17:22 | 52.99279 | -7.97612 | 24071 ft | 349 kts | 249° |
| 2026-05-05 17:22 | 52.98346 | -8.01320 | 24073 ft | 349 kts | 249° |
| 2026-05-05 17:22 | 52.97396 | -8.05096 | 23945 ft | 361 kts | 249° |
| 2026-05-05 17:23 | 52.96420 | -8.08969 | 23183 ft | 364 kts | 249° |
| 2026-05-05 17:23 | 52.95450 | -8.12804 | 22729 ft | 359 kts | 249° |
| 2026-05-05 17:23 | 52.94490 | -8.16596 | 22287 ft | 354 kts | 249° |
| 2026-05-05 17:23 | 52.93666 | -8.20404 | 21845 ft | 348 kts | 257° |
| 2026-05-05 17:24 | 52.93243 | -8.24325 | 21388 ft | 345 kts | 262° |
| 2026-05-05 17:24 | 52.92874 | -8.28228 | 20930 ft | 342 kts | 262° |
| 2026-05-05 17:24 | 52.92522 | -8.31939 | 20504 ft | 339 kts | 262° |
| 2026-05-05 17:24 | 52.92154 | -8.35788 | 20069 ft | 337 kts | 262° |
| 2026-05-05 17:25 | 52.91785 | -8.39610 | 19634 ft | 335 kts | 262° |
| 2026-05-05 17:25 | 52.91541 | -8.42130 | 19341 ft | 334 kts | 262° |
| 2026-05-05 17:25 | 52.91048 | -8.47179 | 18758 ft | 332 kts | 262° |
| 2026-05-05 17:25 | 52.90676 | -8.50941 | 18333 ft | 331 kts | 262° |
| 2026-05-05 17:26 | 52.90302 | -8.54691 | 17881 ft | 329 kts | 262° |
| 2026-05-05 17:26 | 52.89930 | -8.58409 | 17462 ft | 326 kts | 262° |
| 2026-05-05 17:26 | 52.89562 | -8.62096 | 17044 ft | 323 kts | 262° |
| 2026-05-05 17:26 | 52.89204 | -8.65698 | 16653 ft | 321 kts | 262° |
| 2026-05-05 17:27 | 52.88846 | -8.69322 | 16259 ft | 318 kts | 262° |
| 2026-05-05 17:27 | 52.88480 | -8.72987 | 15864 ft | 316 kts | 262° |
| 2026-05-05 17:27 | 52.88123 | -8.76520 | 15481 ft | 315 kts | 262° |
| 2026-05-05 17:27 | 52.87760 | -8.80078 | 15099 ft | 313 kts | 262° |
| 2026-05-05 17:28 | 52.87400 | -8.83617 | 14712 ft | 312 kts | 262° |
| 2026-05-05 17:28 | 52.86903 | -8.87108 | 14330 ft | 312 kts | 251° |
| 2026-05-05 17:28 | 52.85927 | -8.90309 | 13937 ft | 313 kts | 238° |
| 2026-05-05 17:28 | 52.84679 | -8.93021 | 13533 ft | 313 kts | 233° |
| 2026-05-05 17:29 | 52.83346 | -8.95850 | 13118 ft | 311 kts | 234° |
| 2026-05-05 17:29 | 52.82025 | -8.98660 | 12768 ft | 307 kts | 234° |
| 2026-05-05 17:29 | 52.80855 | -9.01152 | 12273 ft | 310 kts | 234° |
| 2026-05-05 17:29 | 52.79489 | -9.04058 | 11720 ft | 313 kts | 234° |
| 2026-05-05 17:30 | 52.78149 | -9.06902 | 11192 ft | 314 kts | 234° |
| 2026-05-05 17:30 | 52.76807 | -9.09746 | 10695 ft | 314 kts | 234° |
| 2026-05-05 17:30 | 52.75464 | -9.12589 | 10193 ft | 314 kts | 234° |
| 2026-05-05 17:30 | 52.74116 | -9.15438 | 9698 ft | 314 kts | 234° |
| 2026-05-05 17:31 | 52.72772 | -9.18273 | 9151 ft | 314 kts | 233° |
| 2026-05-05 17:31 | 52.71427 | -9.21110 | 8605 ft | 313 kts | 233° |
| 2026-05-05 17:31 | 52.70084 | -9.23936 | 8057 ft | 313 kts | 233° |
| 2026-05-05 17:31 | 52.68746 | -9.26751 | 7528 ft | 312 kts | 233° |
| 2026-05-05 17:32 | 52.67408 | -9.29554 | 7000 ft | 310 kts | 231° |
| 2026-05-05 17:32 | 52.65755 | -9.31790 | 6483 ft | 310 kts | 204° |
| 2026-05-05 17:32 | 52.63665 | -9.32376 | 5923 ft | 308 kts | 173° |
| 2026-05-05 17:32 | 52.61667 | -9.31212 | 5378 ft | 305 kts | 148° |
| 2026-05-05 17:33 | 52.59988 | -9.29126 | 4838 ft | 302 kts | 137° |
| 2026-05-05 17:33 | 52.58475 | -9.26760 | 4350 ft | 297 kts | 134° |
| 2026-05-05 17:33 | 52.57263 | -9.24146 | 4181 ft | 279 kts | 109° |
| 2026-05-05 17:33 | 52.57062 | -9.21140 | 4049 ft | 259 kts | 76° |
| 2026-05-05 17:34 | 52.57804 | -9.18548 | 3785 ft | 247 kts | 51° |
| 2026-05-05 17:34 | 52.58855 | -9.16363 | 3476 ft | 241 kts | 48° |
| 2026-05-05 17:34 | 52.59900 | -9.14241 | 3148 ft | 238 kts | 49° |
| 2026-05-05 17:34 | 52.60905 | -9.12139 | 2839 ft | 235 kts | 49° |
| 2026-05-05 17:35 | 52.61909 | -9.10021 | 2503 ft | 231 kts | 49° |
| 2026-05-05 17:35 | 52.62816 | -9.08105 | 2206 ft | 216 kts | 49° |
| 2026-05-05 17:35 | 52.63709 | -9.06218 | 1929 ft | 202 kts | 49° |
| 2026-05-05 17:35 | 52.64535 | -9.04470 | 1679 ft | 185 kts | 48° |
| 2026-05-05 17:36 | 52.65289 | -9.02875 | 1425 ft | 168 kts | 47° |
| 2026-05-05 17:36 | 52.65979 | -9.01425 | 1187 ft | 156 kts | 48° |
| 2026-05-05 17:36 | 52.66647 | -9.00066 | 1047 ft | 153 kts | 46° |
| 2026-05-05 17:36 | 52.67273 | -8.98702 | 778 ft | 141 kts | 50° |
| 2026-05-05 17:37 | 52.67843 | -8.97463 | 577 ft | 132 kts | 47° |
| 2026-05-05 17:37 | 52.68425 | -8.96311 | 380 ft | 130 kts | 51° |
| 2026-05-05 17:37 | 52.68966 | -8.95132 | 224 ft | 128 kts | 52° |
| 2026-05-05 17:37 | 52.69506 | -8.93965 | 58 ft | 126 kts | 52° |
| 2026-05-05 17:38 | 52.69985 | -8.92946 | 37 ft | 90 kts | 52° |
| 2026-05-05 17:38 | 52.70272 | -8.92332 | 33 ft | 54 kts | 53° |
| 2026-05-05 17:38 | 52.70487 | -8.91877 | 30 ft | 48 kts | 52° |
| 2026-05-05 17:38 | 52.70684 | -8.91461 | 25 ft | 41 kts | 52° |
| 2026-05-05 17:39 | 52.70840 | -8.91128 | 28 ft | 36 kts | 52° |
| 2026-05-05 17:39 | 52.70972 | -8.90849 | 23 ft | 16 kts | 54° |
| 2026-05-05 17:39 | 52.70919 | -8.90708 | 23 ft | 17 kts | 148° |
| 2026-05-05 17:39 | 52.70803 | -8.90672 | 23 ft | 18 kts | 195° |
| 2026-05-05 17:40 | 52.70664 | -8.90750 | 26 ft | 26 kts | 199° |
| 2026-05-05 17:40 | 52.70490 | -8.90846 | 23 ft | 29 kts | 198° |
| 2026-05-05 17:40 | 52.70297 | -8.90953 | 23 ft | 30 kts | 198° |
| 2026-05-05 17:40 | 52.70109 | -8.91056 | 23 ft | 33 kts | 198° |
| 2026-05-05 17:41 | 52.69901 | -8.91171 | 22 ft | 31 kts | 198° |
| 2026-05-05 17:41 | 52.69714 | -8.91275 | 23 ft | 27 kts | 198° |
| 2026-05-05 17:41 | 52.69547 | -8.91367 | 23 ft | 22 kts | 199° |
| 2026-05-05 17:41 | 52.69426 | -8.91434 | 22 ft | 12 kts | 199° |
| 2026-05-05 17:42 | 52.69354 | -8.91474 | 23 ft | 10 kts | 198° |
| 2026-05-05 17:42 | 52.69288 | -8.91508 | 23 ft | 10 kts | 199° |
| 2026-05-05 17:42 | 52.69256 | -8.91585 | 22 ft | 7 kts | 258° |
| 2026-05-05 17:42 | 52.69227 | -8.91637 | 23 ft | 6 kts | 220° |
| 2026-05-05 17:43 | 52.69209 | -8.91662 | 23 ft | 2 kts | 220° |
| 2026-05-05 17:43 | 52.69208 | -8.91663 | 23 ft | 0 kts | 220° |